sensor_id;sensor_type;location;lat;lon;timestamp;pressure;altitude;pressure_sealevel;temperature;humidity
40574;BME280;26283;49.020;8.644;2022-07-21T00:01:00;99531.47;;;28.54;49.58
40574;BME280;26283;49.020;8.644;2022-07-21T00:03:26;99538.16;;;28.53;49.50
40574;BME280;26283;49.020;8.644;2022-07-21T00:05:51;99534.59;;;28.52;49.48
40574;BME280;26283;49.020;8.644;2022-07-21T00:08:17;99527.72;;;28.50;49.47
40574;BME280;26283;49.020;8.644;2022-07-21T00:10:42;99532.78;;;28.48;49.39
40574;BME280;26283;49.020;8.644;2022-07-21T00:13:08;99531.16;;;28.47;49.21
40574;BME280;26283;49.020;8.644;2022-07-21T00:15:33;99530.69;;;28.45;49.33
40574;BME280;26283;49.020;8.644;2022-07-21T00:17:59;99526.28;;;28.44;49.57
40574;BME280;26283;49.020;8.644;2022-07-21T00:20:25;99535.72;;;28.43;49.67
40574;BME280;26283;49.020;8.644;2022-07-21T00:22:53;99513.87;;;28.41;49.56
40574;BME280;26283;49.020;8.644;2022-07-21T00:25:18;99518.94;;;28.39;49.50
40574;BME280;26283;49.020;8.644;2022-07-21T00:27:44;99525.62;;;28.38;49.57
40574;BME280;26283;49.020;8.644;2022-07-21T00:30:10;99523.19;;;28.37;49.42
40574;BME280;26283;49.020;8.644;2022-07-21T00:32:36;99528.28;;;28.35;49.42
40574;BME280;26283;49.020;8.644;2022-07-21T00:35:03;99518.34;;;28.34;49.21
40574;BME280;26283;49.020;8.644;2022-07-21T00:37:29;99534.16;;;28.33;49.38
40574;BME280;26283;49.020;8.644;2022-07-21T00:39:54;99533.66;;;28.31;49.46
40574;BME280;26283;49.020;8.644;2022-07-21T00:42:21;99527.63;;;28.29;49.51
40574;BME280;26283;49.020;8.644;2022-07-21T00:44:47;99526.00;;;28.28;49.38
40574;BME280;26283;49.020;8.644;2022-07-21T00:47:12;99540.19;;;28.26;49.30
40574;BME280;26283;49.020;8.644;2022-07-21T00:49:38;99540.50;;;28.25;49.25
40574;BME280;26283;49.020;8.644;2022-07-21T00:52:03;99541.66;;;28.24;49.19
40574;BME280;26283;49.020;8.644;2022-07-21T00:54:29;99548.34;;;28.23;49.52
40574;BME280;26283;49.020;8.644;2022-07-21T00:56:54;99534.81;;;28.21;49.32
40574;BME280;26283;49.020;8.644;2022-07-21T00:59:20;99546.22;;;28.20;49.30
40574;BME280;26283;49.020;8.644;2022-07-21T01:01:45;99540.97;;;28.18;49.33
40574;BME280;26283;49.020;8.644;2022-07-21T01:04:11;99538.53;;;28.17;49.45
40574;BME280;26283;49.020;8.644;2022-07-21T01:06:36;99547.97;;;28.16;49.71
40574;BME280;26283;49.020;8.644;2022-07-21T01:09:02;99552.72;;;28.15;49.68
40574;BME280;26283;49.020;8.644;2022-07-21T01:11:28;99545.56;;;28.14;49.50
40574;BME280;26283;49.020;8.644;2022-07-21T01:13:54;99543.94;;;28.13;49.51
40574;BME280;26283;49.020;8.644;2022-07-21T01:16:19;99548.66;;;28.13;49.87
40574;BME280;26283;49.020;8.644;2022-07-21T01:18:45;99547.03;;;28.12;49.77
40574;BME280;26283;49.020;8.644;2022-07-21T01:21:34;99552.56;;;28.12;49.95
40574;BME280;26283;49.020;8.644;2022-07-21T01:24:01;99557.63;;;28.10;49.58
40574;BME280;26283;49.020;8.644;2022-07-21T01:26:27;99544.91;;;28.09;49.94
40574;BME280;26283;49.020;8.644;2022-07-21T01:28:53;99542.47;;;28.07;49.71
40574;BME280;26283;49.020;8.644;2022-07-21T01:31:19;99544.44;;;28.07;49.85
40574;BME280;26283;49.020;8.644;2022-07-21T01:33:44;99544.44;;;28.07;49.87
40574;BME280;26283;49.020;8.644;2022-07-21T01:36:10;99540.84;;;28.06;50.32
40574;BME280;26283;49.020;8.644;2022-07-21T01:38:36;99532.84;;;28.05;49.78
40574;BME280;26283;49.020;8.644;2022-07-21T01:41:20;99536.75;;;28.04;50.38
40574;BME280;26283;49.020;8.644;2022-07-21T01:43:58;99543.44;;;28.03;50.14
40574;BME280;26283;49.020;8.644;2022-07-21T01:46:24;99550.13;;;28.02;50.08
40574;BME280;26283;49.020;8.644;2022-07-21T01:48:49;99554.03;;;28.01;50.08
40574;BME280;26283;49.020;8.644;2022-07-21T01:51:15;99557.94;;;27.99;50.06
40574;BME280;26283;49.020;8.644;2022-07-21T01:53:40;99562.34;;;28.01;50.25
40574;BME280;26283;49.020;8.644;2022-07-21T01:56:06;99548.81;;;27.99;50.73
40574;BME280;26283;49.020;8.644;2022-07-21T01:58:32;99545.25;;;27.98;50.63
40574;BME280;26283;49.020;8.644;2022-07-21T02:00:58;99550.28;;;27.96;50.24
40574;BME280;26283;49.020;8.644;2022-07-21T02:03:24;99547.53;;;27.96;50.39
40574;BME280;26283;49.020;8.644;2022-07-21T02:05:49;99557.78;;;27.96;50.50
40574;BME280;26283;49.020;8.644;2022-07-21T02:08:15;99562.50;;;27.95;50.64
40574;BME280;26283;49.020;8.644;2022-07-21T02:10:40;99556.97;;;27.95;50.52
40574;BME280;26283;49.020;8.644;2022-07-21T02:13:06;99563.66;;;27.94;50.42
40574;BME280;26283;49.020;8.644;2022-07-21T02:15:31;99563.66;;;27.94;50.32
40574;BME280;26283;49.020;8.644;2022-07-21T02:17:57;99560.41;;;27.92;50.42
40574;BME280;26283;49.020;8.644;2022-07-21T02:20:24;99575.88;;;27.93;50.47
40574;BME280;26283;49.020;8.644;2022-07-21T02:22:50;99579.00;;;27.92;50.68
40574;BME280;26283;49.020;8.644;2022-07-21T02:25:15;99583.72;;;27.91;50.49
40574;BME280;26283;49.020;8.644;2022-07-21T02:27:42;99584.03;;;27.90;50.43
40574;BME280;26283;49.020;8.644;2022-07-21T02:30:08;99589.56;;;27.90;50.40
40574;BME280;26283;49.020;8.644;2022-07-21T02:32:34;99585.19;;;27.89;50.48
40574;BME280;26283;49.020;8.644;2022-07-21T02:34:59;99588.28;;;27.87;50.56
40574;BME280;26283;49.020;8.644;2022-07-21T02:37:25;99589.41;;;27.86;50.40
40574;BME280;26283;49.020;8.644;2022-07-21T02:39:50;99587.78;;;27.85;50.27
40574;BME280;26283;49.020;8.644;2022-07-21T02:42:15;99591.69;;;27.84;50.26
40574;BME280;26283;49.020;8.644;2022-07-21T02:44:41;99590.88;;;27.84;50.28
40574;BME280;26283;49.020;8.644;2022-07-21T02:47:06;99590.37;;;27.82;50.29
40574;BME280;26283;49.020;8.644;2022-07-21T02:49:32;99591.19;;;27.82;50.42
40574;BME280;26283;49.020;8.644;2022-07-21T02:51:57;99587.94;;;27.80;50.54
40574;BME280;26283;49.020;8.644;2022-07-21T02:54:23;99598.19;;;27.80;50.50
40574;BME280;26283;49.020;8.644;2022-07-21T02:56:48;99602.09;;;27.79;50.75
40574;BME280;26283;49.020;8.644;2022-07-21T02:59:13;99605.19;;;27.77;50.56
40574;BME280;26283;49.020;8.644;2022-07-21T03:01:39;99604.37;;;27.77;50.38
40574;BME280;26283;49.020;8.644;2022-07-21T03:04:04;99601.94;;;27.75;50.54
40574;BME280;26283;49.020;8.644;2022-07-21T03:06:30;99606.66;;;27.75;50.50
40574;BME280;26283;49.020;8.644;2022-07-21T03:08:55;99605.03;;;27.74;50.80
40574;BME280;26283;49.020;8.644;2022-07-21T03:11:20;99601.75;;;27.72;50.48
40574;BME280;26283;49.020;8.644;2022-07-21T03:13:46;99609.28;;;27.71;50.77
40574;BME280;26283;49.020;8.644;2022-07-21T03:16:11;99605.69;;;27.71;50.71
40574;BME280;26283;49.020;8.644;2022-07-21T03:18:37;99606.00;;;27.69;51.02
40574;BME280;26283;49.020;8.644;2022-07-21T03:21:03;99611.56;;;27.69;50.72
40574;BME280;26283;49.020;8.644;2022-07-21T03:23:28;99606.34;;;27.68;50.85
40574;BME280;26283;49.020;8.644;2022-07-21T03:25:53;99602.75;;;27.67;50.72
40574;BME280;26283;49.020;8.644;2022-07-21T03:28:19;99603.88;;;27.66;50.64
40574;BME280;26283;49.020;8.644;2022-07-21T03:30:44;99598.69;;;27.64;50.33
40574;BME280;26283;49.020;8.644;2022-07-21T03:33:10;99601.44;;;27.64;50.80
40574;BME280;26283;49.020;8.644;2022-07-21T03:35:35;99598.19;;;27.62;50.37
40574;BME280;26283;49.020;8.644;2022-07-21T03:38:02;99591.00;;;27.61;50.47
40574;BME280;26283;49.020;8.644;2022-07-21T03:40:30;99593.28;;;27.59;50.49
40574;BME280;26283;49.020;8.644;2022-07-21T03:42:58;99597.69;;;27.60;50.38
40574;BME280;26283;49.020;8.644;2022-07-21T03:45:25;99606.31;;;27.59;50.30
40574;BME280;26283;49.020;8.644;2022-07-21T03:47:50;99601.09;;;27.57;50.31
40574;BME280;26283;49.020;8.644;2022-07-21T03:50:16;99611.66;;;27.55;50.33
40574;BME280;26283;49.020;8.644;2022-07-21T03:52:43;99622.72;;;27.55;50.37
40574;BME280;26283;49.020;8.644;2022-07-21T03:55:09;99623.03;;;27.54;50.18
40574;BME280;26283;49.020;8.644;2022-07-21T03:57:51;99621.41;;;27.53;50.21
40574;BME280;26283;49.020;8.644;2022-07-21T04:00:20;99627.25;;;27.51;50.38
40574;BME280;26283;49.020;8.644;2022-07-21T04:02:47;99627.56;;;27.50;50.26
40574;BME280;26283;49.020;8.644;2022-07-21T04:05:13;99625.97;;;27.49;50.33
40574;BME280;26283;49.020;8.644;2022-07-21T04:07:40;99619.94;;;27.47;50.38
40574;BME280;26283;49.020;8.644;2022-07-21T04:10:08;99622.72;;;27.47;50.46
40574;BME280;26283;49.020;8.644;2022-07-21T04:12:33;99621.09;;;27.46;50.46
40574;BME280;26283;49.020;8.644;2022-07-21T04:14:59;99628.56;;;27.45;50.42
40574;BME280;26283;49.020;8.644;2022-07-21T04:17:24;99625.31;;;27.43;50.42
40574;BME280;26283;49.020;8.644;2022-07-21T04:19:50;99622.84;;;27.42;50.46
40574;BME280;26283;49.020;8.644;2022-07-21T04:22:15;99631.97;;;27.42;50.63
40574;BME280;26283;49.020;8.644;2022-07-21T04:24:41;99624.81;;;27.41;50.65
40574;BME280;26283;49.020;8.644;2022-07-21T04:27:07;99633.44;;;27.40;50.57
40574;BME280;26283;49.020;8.644;2022-07-21T04:29:32;99634.56;;;27.39;50.53
40574;BME280;26283;49.020;8.644;2022-07-21T04:31:57;99632.94;;;27.38;50.59
40574;BME280;26283;49.020;8.644;2022-07-21T04:34:23;99633.25;;;27.36;50.61
40574;BME280;26283;49.020;8.644;2022-07-21T04:36:49;99637.16;;;27.35;50.70
40574;BME280;26283;49.020;8.644;2022-07-21T04:39:14;99626.09;;;27.35;50.88
40574;BME280;26283;49.020;8.644;2022-07-21T04:41:39;99635.53;;;27.34;50.84
40574;BME280;26283;49.020;8.644;2022-07-21T04:44:05;99631.12;;;27.33;51.01
40574;BME280;26283;49.020;8.644;2022-07-21T04:46:30;99635.03;;;27.32;51.02
40574;BME280;26283;49.020;8.644;2022-07-21T04:48:56;99636.16;;;27.31;51.29
40574;BME280;26283;49.020;8.644;2022-07-21T04:51:21;99640.88;;;27.30;51.23
40574;BME280;26283;49.020;8.644;2022-07-21T04:53:46;99638.44;;;27.29;51.52
40574;BME280;26283;49.020;8.644;2022-07-21T04:56:12;99637.59;;;27.28;51.50
40574;BME280;26283;49.020;8.644;2022-07-21T04:58:37;99642.34;;;27.28;51.61
40574;BME280;26283;49.020;8.644;2022-07-21T05:01:03;99647.06;;;27.27;51.73
40574;BME280;26283;49.020;8.644;2022-07-21T05:03:28;99644.63;;;27.26;51.67
40574;BME280;26283;49.020;8.644;2022-07-21T05:05:53;99654.88;;;27.25;51.70
40574;BME280;26283;49.020;8.644;2022-07-21T05:08:19;99657.16;;;27.23;51.60
40574;BME280;26283;49.020;8.644;2022-07-21T05:10:44;99662.69;;;27.23;51.59
40574;BME280;26283;49.020;8.644;2022-07-21T05:13:10;99659.41;;;27.21;51.49
40574;BME280;26283;49.020;8.644;2022-07-21T05:15:35;99662.19;;;27.21;51.60
40574;BME280;26283;49.020;8.644;2022-07-21T05:18:00;99663.31;;;27.20;51.35
40574;BME280;26283;49.020;8.644;2022-07-21T05:20:26;99668.84;;;27.20;51.52
40574;BME280;26283;49.020;8.644;2022-07-21T05:22:51;99673.87;;;27.18;51.57
40574;BME280;26283;49.020;8.644;2022-07-21T05:25:17;99673.87;;;27.18;51.79
40574;BME280;26283;49.020;8.644;2022-07-21T05:27:42;99669.47;;;27.17;51.65
40574;BME280;26283;49.020;8.644;2022-07-21T05:30:08;99680.56;;;27.17;52.20
40574;BME280;26283;49.020;8.644;2022-07-21T05:32:34;99672.56;;;27.16;52.43
40574;BME280;26283;49.020;8.644;2022-07-21T05:34:59;99682.81;;;27.15;52.20
40574;BME280;26283;49.020;8.644;2022-07-21T05:37:25;99681.19;;;27.14;52.27
40574;BME280;26283;49.020;8.644;2022-07-21T05:39:52;99681.19;;;27.14;52.60
40574;BME280;26283;49.020;8.644;2022-07-21T05:42:18;99676.78;;;27.13;51.95
40574;BME280;26283;49.020;8.644;2022-07-21T05:44:43;99674.00;;;27.13;52.26
40574;BME280;26283;49.020;8.644;2022-07-21T05:47:08;99677.91;;;27.12;52.17
40574;BME280;26283;49.020;8.644;2022-07-21T05:49:34;99677.91;;;27.12;52.40
40574;BME280;26283;49.020;8.644;2022-07-21T05:51:59;99688.16;;;27.12;52.33
40574;BME280;26283;49.020;8.644;2022-07-21T05:54:25;99680.19;;;27.10;52.53
40574;BME280;26283;49.020;8.644;2022-07-21T05:56:50;99682.94;;;27.10;52.14
40574;BME280;26283;49.020;8.644;2022-07-21T05:59:15;99680.19;;;27.10;52.64
40574;BME280;26283;49.020;8.644;2022-07-21T06:01:41;99673.81;;;27.10;53.72
40574;BME280;26283;49.020;8.644;2022-07-21T06:04:06;99673.81;;;27.10;52.73
40574;BME280;26283;49.020;8.644;2022-07-21T06:06:32;99682.13;;;27.10;53.86
40574;BME280;26283;49.020;8.644;2022-07-21T06:08:58;99689.59;;;27.09;53.41
40574;BME280;26283;49.020;8.644;2022-07-21T06:11:23;99680.19;;;27.10;52.69
40574;BME280;26283;49.020;8.644;2022-07-21T06:13:48;99674.66;;;27.10;52.42
40574;BME280;26283;49.020;8.644;2022-07-21T06:16:14;99673.81;;;27.10;53.01
40574;BME280;26283;49.020;8.644;2022-07-21T06:18:39;99681.81;;;27.11;54.38
40574;BME280;26283;49.020;8.644;2022-07-21T06:21:05;99678.53;;;27.09;53.17
40574;BME280;26283;49.020;8.644;2022-07-21T06:23:30;99682.94;;;27.10;54.54
40574;BME280;26283;49.020;8.644;2022-07-21T06:25:56;99680.19;;;27.10;53.57
40574;BME280;26283;49.020;8.644;2022-07-21T06:28:22;99678.22;;;27.11;54.64
40574;BME280;26283;49.020;8.644;2022-07-21T06:30:48;99676.28;;;27.11;54.40
40574;BME280;26283;49.020;8.644;2022-07-21T06:33:14;99679.03;;;27.11;53.63
40574;BME280;26283;49.020;8.644;2022-07-21T06:35:40;99684.56;;;27.11;53.38
40574;BME280;26283;49.020;8.644;2022-07-21T06:38:05;99686.22;;;27.12;53.93
40574;BME280;26283;49.020;8.644;2022-07-21T06:40:31;99690.63;;;27.13;54.41
40574;BME280;26283;49.020;8.644;2022-07-21T06:42:56;99679.53;;;27.13;54.61
40574;BME280;26283;49.020;8.644;2022-07-21T06:45:23;99685.91;;;27.14;53.87
40574;BME280;26283;49.020;8.644;2022-07-21T06:47:48;99686.72;;;27.14;53.49
40574;BME280;26283;49.020;8.644;2022-07-21T06:50:14;99693.06;;;27.15;54.10
40574;BME280;26283;49.020;8.644;2022-07-21T06:52:39;99686.72;;;27.14;53.46
40574;BME280;26283;49.020;8.644;2022-07-21T06:55:07;99688.34;;;27.15;53.20
40574;BME280;26283;49.020;8.644;2022-07-21T06:57:34;99685.59;;;27.15;54.03
40574;BME280;26283;49.020;8.644;2022-07-21T07:00:00;99694.38;;;27.17;52.61
40574;BME280;26283;49.020;8.644;2022-07-21T07:02:25;99694.38;;;27.17;52.48
40574;BME280;26283;49.020;8.644;2022-07-21T07:04:51;99697.97;;;27.18;52.28
40574;BME280;26283;49.020;8.644;2022-07-21T07:07:16;99696.84;;;27.19;52.79
40574;BME280;26283;49.020;8.644;2022-07-21T07:09:41;99700.41;;;27.19;53.48
40574;BME280;26283;49.020;8.644;2022-07-21T07:12:07;99701.22;;;27.20;52.25
40574;BME280;26283;49.020;8.644;2022-07-21T07:14:35;99710.34;;;27.20;52.43
40574;BME280;26283;49.020;8.644;2022-07-21T07:17:01;99707.59;;;27.20;49.98
40574;BME280;26283;49.020;8.644;2022-07-21T07:19:27;99708.91;;;27.23;51.65
40574;BME280;26283;49.020;8.644;2022-07-21T07:21:53;99712.97;;;27.25;52.09
40574;BME280;26283;49.020;8.644;2022-07-21T07:24:18;99723.25;;;27.25;50.80
40574;BME280;26283;49.020;8.644;2022-07-21T07:26:44;99727.31;;;27.27;50.46
40574;BME280;26283;49.020;8.644;2022-07-21T07:29:10;99737.22;;;27.28;50.64
40574;BME280;26283;49.020;8.644;2022-07-21T07:31:35;99736.59;;;27.31;50.20
40574;BME280;26283;49.020;8.644;2022-07-21T07:34:01;99730.44;;;27.35;50.69
40574;BME280;26283;49.020;8.644;2022-07-21T07:36:27;99742.00;;;27.37;50.47
40574;BME280;26283;49.020;8.644;2022-07-21T07:38:54;99736.97;;;27.39;50.83
40574;BME280;26283;49.020;8.644;2022-07-21T07:41:21;99746.28;;;27.43;50.57
40574;BME280;26283;49.020;8.644;2022-07-21T07:43:47;99745.12;;;27.44;50.37
40574;BME280;26283;49.020;8.644;2022-07-21T07:46:13;99742.87;;;27.46;50.40
40574;BME280;26283;49.020;8.644;2022-07-21T07:48:40;99747.78;;;27.49;50.19
40574;BME280;26283;49.020;8.644;2022-07-21T07:51:07;99751.00;;;27.51;50.00
40574;BME280;26283;49.020;8.644;2022-07-21T07:53:33;99744.34;;;27.52;49.63
40574;BME280;26283;49.020;8.644;2022-07-21T07:55:59;99745.34;;;27.56;49.60
40574;BME280;26283;49.020;8.644;2022-07-21T07:58:25;99747.81;;;27.57;49.75
40574;BME280;26283;49.020;8.644;2022-07-21T08:00:50;99741.16;;;27.58;49.75
40574;BME280;26283;49.020;8.644;2022-07-21T08:03:16;99743.59;;;27.60;49.76
40574;BME280;26283;49.020;8.644;2022-07-21T08:05:41;99740.50;;;27.61;50.00
40574;BME280;26283;49.020;8.644;2022-07-21T08:08:06;99744.59;;;27.64;49.15
40574;BME280;26283;49.020;8.644;2022-07-21T08:10:32;99743.47;;;27.65;49.45
40574;BME280;26283;49.020;8.644;2022-07-21T08:12:58;99747.88;;;27.66;49.81
40574;BME280;26283;49.020;8.644;2022-07-21T08:15:23;99736.47;;;27.68;49.66
40574;BME280;26283;49.020;8.644;2022-07-21T08:17:49;99738.94;;;27.69;49.47
40574;BME280;26283;49.020;8.644;2022-07-21T08:20:14;99736.66;;;27.71;49.25
40574;BME280;26283;49.020;8.644;2022-07-21T08:22:57;99739.88;;;27.73;48.95
40574;BME280;26283;49.020;8.644;2022-07-21T08:25:31;99733.22;;;27.74;49.10
40574;BME280;26283;49.020;8.644;2022-07-21T08:28:03;99735.66;;;27.76;49.07
40574;BME280;26283;49.020;8.644;2022-07-21T08:30:35;99732.56;;;27.77;49.06
40574;BME280;26283;49.020;8.644;2022-07-21T08:33:04;99733.06;;;27.79;49.03
40574;BME280;26283;49.020;8.644;2022-07-21T08:35:30;99731.94;;;27.80;48.64
40574;BME280;26283;49.020;8.644;2022-07-21T08:38:02;99731.94;;;27.80;48.34
40574;BME280;26283;49.020;8.644;2022-07-21T08:40:33;99732.13;;;27.84;48.29
40574;BME280;26283;49.020;8.644;2022-07-21T08:43:04;99734.56;;;27.85;48.62
40574;BME280;26283;49.020;8.644;2022-07-21T08:45:44;99732.28;;;27.87;49.15
40574;BME280;26283;49.020;8.644;2022-07-21T08:48:12;99737.53;;;27.89;48.78
40574;BME280;26283;49.020;8.644;2022-07-21T08:50:40;99738.00;;;27.91;48.81
40574;BME280;26283;49.020;8.644;2022-07-21T08:53:05;99750.37;;;27.93;47.90
40574;BME280;26283;49.020;8.644;2022-07-21T08:55:33;99738.97;;;27.95;48.46
40574;BME280;26283;49.020;8.644;2022-07-21T08:58:00;99737.53;;;27.97;47.57
40574;BME280;26283;49.020;8.644;2022-07-21T09:00:26;99730.84;;;27.98;47.77
40574;BME280;26283;49.020;8.644;2022-07-21T09:03:13;99736.88;;;28.01;47.30
40574;BME280;26283;49.020;8.644;2022-07-21T09:05:40;99736.56;;;28.02;46.97
40574;BME280;26283;49.020;8.644;2022-07-21T09:08:06;99751.22;;;28.03;47.46
40574;BME280;26283;49.020;8.644;2022-07-21T09:10:32;99740.97;;;28.03;46.99
40574;BME280;26283;49.020;8.644;2022-07-21T09:13:01;99745.38;;;28.04;47.32
40574;BME280;26283;49.020;8.644;2022-07-21T09:15:28;99740.31;;;28.06;47.58
40574;BME280;26283;49.020;8.644;2022-07-21T09:18:14;99754.66;;;28.08;47.87
40574;BME280;26283;49.020;8.644;2022-07-21T09:20:49;99746.84;;;28.10;47.31
40574;BME280;26283;49.020;8.644;2022-07-21T09:23:18;99742.94;;;28.11;47.03
40574;BME280;26283;49.020;8.644;2022-07-21T09:25:48;99742.63;;;28.13;47.11
40574;BME280;26283;49.020;8.644;2022-07-21T09:30:59;99740.00;;;28.16;47.47
40574;BME280;26283;49.020;8.644;2022-07-21T09:33:38;99732.19;;;28.18;47.78
40574;BME280;26283;49.020;8.644;2022-07-21T09:36:22;99732.38;;;28.22;47.52
40574;BME280;26283;49.020;8.644;2022-07-21T09:41:17;99731.75;;;28.25;47.74
40574;BME280;26283;49.020;8.644;2022-07-21T09:43:51;99729.47;;;28.27;48.07
40574;BME280;26283;49.020;8.644;2022-07-21T09:46:24;99729.13;;;28.28;47.40
40574;BME280;26283;49.020;8.644;2022-07-21T09:48:51;99724.09;;;28.30;47.41
40574;BME280;26283;49.020;8.644;2022-07-21T09:54:03;99719.53;;;28.35;47.55
40574;BME280;26283;49.020;8.644;2022-07-21T09:56:32;99718.03;;;28.37;47.92
40574;BME280;26283;49.020;8.644;2022-07-21T09:58:59;99722.12;;;28.40;47.98
40574;BME280;26283;49.020;8.644;2022-07-21T10:01:25;99726.19;;;28.42;46.84
40574;BME280;26283;49.020;8.644;2022-07-21T10:03:52;99721.16;;;28.44;46.46
40574;BME280;26283;49.020;8.644;2022-07-21T10:06:24;99729.13;;;28.46;47.31
40574;BME280;26283;49.020;8.644;2022-07-21T10:08:50;99726.84;;;28.48;46.58
40574;BME280;26283;49.020;8.644;2022-07-21T10:11:16;99723.75;;;28.49;46.10
40574;BME280;26283;49.020;8.644;2022-07-21T10:13:42;99725.41;;;28.50;45.77
40574;BME280;26283;49.020;8.644;2022-07-21T10:16:09;99715.94;;;28.51;45.62
40574;BME280;26283;49.020;8.644;2022-07-21T10:24:29;99717.41;;;28.57;46.19
40574;BME280;26283;49.020;8.644;2022-07-21T10:30:01;99723.41;;;28.59;45.10
40574;BME280;26283;49.020;8.644;2022-07-21T10:32:33;99726.69;;;28.61;45.53
40574;BME280;26283;49.020;8.644;2022-07-21T10:35:02;99720.00;;;28.62;45.86
40574;BME280;26283;49.020;8.644;2022-07-21T10:42:46;99707.44;;;28.65;46.01
40574;BME280;26283;49.020;8.644;2022-07-21T10:45:32;99708.75;;;28.67;45.67
40574;BME280;26283;49.020;8.644;2022-07-21T10:48:00;99711.50;;;28.67;44.95
40574;BME280;26283;49.020;8.644;2022-07-21T10:50:40;99709.56;;;28.68;44.57
40574;BME280;26283;49.020;8.644;2022-07-21T10:53:14;99710.03;;;28.70;43.75
40574;BME280;26283;49.020;8.644;2022-07-21T10:55:46;99707.28;;;28.70;44.28
40574;BME280;26283;49.020;8.644;2022-07-21T10:58:29;99707.75;;;28.72;44.57
40574;BME280;26283;49.020;8.644;2022-07-21T11:01:00;99700.25;;;28.73;44.82
40574;BME280;26283;49.020;8.644;2022-07-21T11:03:33;99700.75;;;28.75;45.47
40574;BME280;26283;49.020;8.644;2022-07-21T11:09:08;99701.22;;;28.77;44.83
40574;BME280;26283;49.020;8.644;2022-07-21T11:12:17;99700.09;;;28.78;45.25
40574;BME280;26283;49.020;8.644;2022-07-21T11:14:41;99700.09;;;28.78;45.16
40574;BME280;26283;49.020;8.644;2022-07-21T11:17:10;99693.41;;;28.79;43.86
40574;BME280;26283;49.020;8.644;2022-07-21T11:19:48;99689.44;;;28.80;44.69
40574;BME280;26283;49.020;8.644;2022-07-21T11:22:27;99693.06;;;28.80;44.28
40574;BME280;26283;49.020;8.644;2022-07-21T11:25:04;99689.16;;;28.81;44.57
40574;BME280;26283;49.020;8.644;2022-07-21T11:27:34;99696.34;;;28.82;44.58
40574;BME280;26283;49.020;8.644;2022-07-21T11:30:02;99684.09;;;28.83;44.69
40574;BME280;26283;49.020;8.644;2022-07-21T11:32:28;99682.13;;;28.84;44.27
40574;BME280;26283;49.020;8.644;2022-07-21T11:34:56;99683.44;;;28.86;44.41
40574;BME280;26283;49.020;8.644;2022-07-21T11:39:53;99665.66;;;28.87;43.95
40574;BME280;26283;49.020;8.644;2022-07-21T11:42:18;99668.09;;;28.89;44.34
40574;BME280;26283;49.020;8.644;2022-07-21T11:44:46;99672.84;;;28.88;42.91
40574;BME280;26283;49.020;8.644;2022-07-21T11:47:13;99673.31;;;28.90;43.66
40574;BME280;26283;49.020;8.644;2022-07-21T11:49:40;99670.56;;;28.90;43.01
40574;BME280;26283;49.020;8.644;2022-07-21T11:54:36;99664.66;;;28.92;42.82
40574;BME280;26283;49.020;8.644;2022-07-21T11:57:06;99660.75;;;28.93;43.32
40574;BME280;26283;49.020;8.644;2022-07-21T11:59:33;99660.75;;;28.93;43.55
40574;BME280;26283;49.020;8.644;2022-07-21T12:02:05;99659.94;;;28.92;43.04
40574;BME280;26283;49.020;8.644;2022-07-21T12:07:00;99659.59;;;28.94;42.69
40574;BME280;26283;49.020;8.644;2022-07-21T12:09:25;99656.84;;;28.94;42.32
40574;BME280;26283;49.020;8.644;2022-07-21T12:11:51;99664.00;;;28.95;43.23
40574;BME280;26283;49.020;8.644;2022-07-21T12:14:18;99660.09;;;28.96;43.41
40574;BME280;26283;49.020;8.644;2022-07-21T12:16:54;99662.88;;;28.96;42.74
40574;BME280;26283;49.020;8.644;2022-07-21T12:19:20;99656.19;;;28.97;43.47
40574;BME280;26283;49.020;8.644;2022-07-21T12:21:49;99658.94;;;28.97;44.00
40574;BME280;26283;49.020;8.644;2022-07-21T12:24:16;99647.84;;;28.97;43.12
40574;BME280;26283;49.020;8.644;2022-07-21T12:26:42;99643.94;;;28.98;43.53
40574;BME280;26283;49.020;8.644;2022-07-21T12:29:08;99651.13;;;28.99;44.17
40574;BME280;26283;49.020;8.644;2022-07-21T12:31:34;99652.75;;;29.00;43.70
40574;BME280;26283;49.020;8.644;2022-07-21T12:34:11;99646.72;;;28.98;43.15
40574;BME280;26283;49.020;8.644;2022-07-21T12:36:37;99636.91;;;29.01;43.44
40574;BME280;26283;49.020;8.644;2022-07-21T12:39:22;99647.19;;;29.00;43.17
40574;BME280;26283;49.020;8.644;2022-07-21T12:42:08;99648.00;;;29.01;42.52
40574;BME280;26283;49.020;8.644;2022-07-21T12:44:34;99640.50;;;29.01;43.41
40574;BME280;26283;49.020;8.644;2022-07-21T12:47:21;99653.19;;;29.02;43.29
40574;BME280;26283;49.020;8.644;2022-07-21T12:50:07;99655.97;;;29.02;42.32
40574;BME280;26283;49.020;8.644;2022-07-21T12:52:33;99642.91;;;29.03;42.13
40574;BME280;26283;49.020;8.644;2022-07-21T12:55:00;99644.88;;;29.02;43.40
40574;BME280;26283;49.020;8.644;2022-07-21T12:57:30;99640.13;;;29.03;44.03
40574;BME280;26283;49.020;8.644;2022-07-21T12:59:58;99640.97;;;29.03;43.21
40574;BME280;26283;49.020;8.644;2022-07-21T13:02:25;99637.84;;;29.05;43.62
40574;BME280;26283;49.020;8.644;2022-07-21T13:04:51;99640.63;;;29.05;43.09
40574;BME280;26283;49.020;8.644;2022-07-21T13:07:17;99637.84;;;29.05;42.18
40574;BME280;26283;49.020;8.644;2022-07-21T13:09:42;99638.66;;;29.05;42.34
40574;BME280;26283;49.020;8.644;2022-07-21T13:12:13;99633.59;;;29.07;43.23
40574;BME280;26283;49.020;8.644;2022-07-21T13:14:40;99635.56;;;29.07;42.58
40574;BME280;26283;49.020;8.644;2022-07-21T13:17:05;99646.34;;;29.08;42.98
40574;BME280;26283;49.020;8.644;2022-07-21T13:19:31;99643.56;;;29.08;42.84
40574;BME280;26283;49.020;8.644;2022-07-21T13:21:57;99631.66;;;29.08;42.12
40574;BME280;26283;49.020;8.644;2022-07-21T13:24:22;99626.91;;;29.08;41.61
40574;BME280;26283;49.020;8.644;2022-07-21T13:26:48;99632.47;;;29.08;42.47
40574;BME280;26283;49.020;8.644;2022-07-21T13:29:13;99638.00;;;29.08;41.44
40574;BME280;26283;49.020;8.644;2022-07-21T13:31:38;99632.47;;;29.08;43.00
40574;BME280;26283;49.020;8.644;2022-07-21T13:34:05;99627.72;;;29.09;41.72